HZC981 RCTP-ZHCC
Flight info
| Callsign | HZC981 |
|---|---|
| Flight time | 2h 13m |
| Altitude | 34100 |
| Route | PIANO1C PIANO L3 VIOLA R596 SULEM/K0889S1040 R596 DST V143 SAPIN W95 UPLEL R343 HFE B208 FYG W596 UNTEL UNT11U |
| Aircraft | B77L/H-SDE1E2E3FGHIJ2J3J4J5M1RWXY/LB1D1 |
Departure
| Time | 2026-05-04 07:50 |
|---|---|
| Airport | Taiwan Taoyuan International Airport (RCTP) |
Arrival
| Time | 2026-05-04 10:04 |
|---|---|
| Airport | Zhengzhou Xinzheng International Airport (ZHCC) |
| Time | Latitude | Longitude | Altitude | Speed | Heading |
|---|---|---|---|---|---|
| 2026-05-04 07:02 | 25.08979 | 121.24263 | 105 ft | 0 kts | 139° |
| 2026-05-04 07:35 | 25.08980 | 121.24262 | 104 ft | 2 kts | 139° |
| 2026-05-04 07:35 | 25.08999 | 121.24244 | 103 ft | 4 kts | 139° |
| 2026-05-04 07:35 | 25.09019 | 121.24225 | 103 ft | 4 kts | 139° |
| 2026-05-04 07:35 | 25.09040 | 121.24205 | 103 ft | 4 kts | 139° |
| 2026-05-04 07:36 | 25.09058 | 121.24187 | 103 ft | 4 kts | 148° |
| 2026-05-04 07:36 | 25.09069 | 121.24180 | 103 ft | 4 kts | 206° |
| 2026-05-04 07:38 | 25.09094 | 121.24216 | 105 ft | 0 kts | 229° |
| 2026-05-04 07:41 | 25.09074 | 121.24190 | 106 ft | 13 kts | 229° |
| 2026-05-04 07:41 | 25.09004 | 121.24102 | 107 ft | 15 kts | 229° |
| 2026-05-04 07:42 | 25.08934 | 121.24012 | 108 ft | 15 kts | 229° |
| 2026-05-04 07:42 | 25.08865 | 121.23924 | 106 ft | 15 kts | 229° |
| 2026-05-04 07:42 | 25.08794 | 121.23834 | 107 ft | 15 kts | 229° |
| 2026-05-04 07:42 | 25.08724 | 121.23745 | 107 ft | 15 kts | 229° |
| 2026-05-04 07:43 | 25.08650 | 121.23650 | 108 ft | 20 kts | 229° |
| 2026-05-04 07:43 | 25.08542 | 121.23513 | 106 ft | 24 kts | 229° |
| 2026-05-04 07:43 | 25.08430 | 121.23371 | 108 ft | 24 kts | 229° |
| 2026-05-04 07:43 | 25.08319 | 121.23229 | 108 ft | 24 kts | 229° |
| 2026-05-04 07:44 | 25.08207 | 121.23087 | 108 ft | 24 kts | 229° |
| 2026-05-04 07:44 | 25.08097 | 121.22947 | 106 ft | 24 kts | 229° |
| 2026-05-04 07:44 | 25.07986 | 121.22806 | 105 ft | 24 kts | 229° |
| 2026-05-04 07:44 | 25.07874 | 121.22664 | 105 ft | 24 kts | 229° |
| 2026-05-04 07:45 | 25.07763 | 121.22522 | 107 ft | 24 kts | 229° |
| 2026-05-04 07:45 | 25.07652 | 121.22381 | 106 ft | 24 kts | 229° |
| 2026-05-04 07:45 | 25.07540 | 121.22239 | 107 ft | 24 kts | 229° |
| 2026-05-04 07:45 | 25.07429 | 121.22097 | 107 ft | 24 kts | 229° |
| 2026-05-04 07:46 | 25.07321 | 121.21960 | 106 ft | 24 kts | 229° |
| 2026-05-04 07:46 | 25.07221 | 121.21833 | 107 ft | 14 kts | 229° |
| 2026-05-04 07:46 | 25.07179 | 121.21771 | 106 ft | 10 kts | 255° |
| 2026-05-04 07:46 | 25.07200 | 121.21716 | 107 ft | 0 kts | 313° |
| 2026-05-04 07:49 | 25.07342 | 121.21665 | 107 ft | 0 kts | 48° |
| 2026-05-04 07:49 | 25.07424 | 121.21767 | 106 ft | 50 kts | 49° |
| 2026-05-04 07:50 | 25.07807 | 121.22256 | 107 ft | 116 kts | 49° |
| 2026-05-04 07:50 | 25.08463 | 121.23078 | 138 ft | 163 kts | 48° |
| 2026-05-04 07:50 | 25.09197 | 121.23986 | 797 ft | 157 kts | 50° |
| 2026-05-04 07:50 | 25.09903 | 121.24891 | 1558 ft | 154 kts | 53° |
| 2026-05-04 07:51 | 25.10587 | 121.25787 | 2323 ft | 153 kts | 53° |
| 2026-05-04 07:51 | 25.11294 | 121.26693 | 2997 ft | 158 kts | 54° |
| 2026-05-04 07:51 | 25.12017 | 121.27612 | 3768 ft | 164 kts | 53° |
| 2026-05-04 07:51 | 25.12837 | 121.28663 | 4066 ft | 194 kts | 51° |
| 2026-05-04 07:52 | 25.14055 | 121.29538 | 4246 ft | 234 kts | 18° |
| 2026-05-04 07:52 | 25.15787 | 121.29388 | 4655 ft | 269 kts | 338° |
| 2026-05-04 07:52 | 25.17385 | 121.28280 | 5460 ft | 272 kts | 332° |
| 2026-05-04 07:52 | 25.19195 | 121.27781 | 6253 ft | 279 kts | 0° |
| 2026-05-04 07:53 | 25.21154 | 121.28021 | 6964 ft | 288 kts | 2° |
| 2026-05-04 07:54 | 25.36523 | 121.28258 | 11296 ft | 382 kts | 1° |
| 2026-05-04 07:55 | 25.39098 | 121.29129 | 11913 ft | 406 kts | 24° |
| 2026-05-04 07:55 | 25.41358 | 121.31079 | 12734 ft | 417 kts | 44° |
| 2026-05-04 07:55 | 25.43291 | 121.33524 | 13418 ft | 427 kts | 46° |
| 2026-05-04 07:55 | 25.45224 | 121.36066 | 14115 ft | 435 kts | 47° |
| 2026-05-04 07:56 | 25.47174 | 121.38647 | 14828 ft | 441 kts | 47° |
| 2026-05-04 07:56 | 25.49162 | 121.41261 | 15578 ft | 445 kts | 46° |
| 2026-05-04 07:56 | 25.51180 | 121.43888 | 16304 ft | 451 kts | 46° |
| 2026-05-04 07:56 | 25.53207 | 121.46504 | 16980 ft | 457 kts | 46° |
| 2026-05-04 07:57 | 25.55294 | 121.49184 | 17652 ft | 462 kts | 45° |
| 2026-05-04 07:57 | 25.57405 | 121.51888 | 18330 ft | 468 kts | 45° |
| 2026-05-04 07:57 | 25.59552 | 121.54635 | 18906 ft | 473 kts | 45° |
| 2026-05-04 07:57 | 25.61713 | 121.57404 | 19505 ft | 478 kts | 45° |
| 2026-05-04 07:58 | 25.63899 | 121.60207 | 20106 ft | 482 kts | 45° |
| 2026-05-04 07:58 | 25.66096 | 121.63027 | 20704 ft | 486 kts | 45° |
| 2026-05-04 07:58 | 25.68308 | 121.65869 | 21282 ft | 490 kts | 45° |
| 2026-05-04 07:58 | 25.70547 | 121.68748 | 21855 ft | 494 kts | 45° |
| 2026-05-04 07:59 | 25.72770 | 121.71608 | 22379 ft | 499 kts | 45° |
| 2026-05-04 07:59 | 25.75048 | 121.74541 | 22920 ft | 504 kts | 45° |
| 2026-05-04 07:59 | 25.77336 | 121.77488 | 23430 ft | 508 kts | 45° |
| 2026-05-04 07:59 | 25.79661 | 121.80482 | 23905 ft | 512 kts | 45° |
| 2026-05-04 08:00 | 25.82151 | 121.83290 | 24294 ft | 509 kts | 34° |
| 2026-05-04 08:00 | 25.84979 | 121.85640 | 24691 ft | 509 kts | 29° |
| 2026-05-04 08:00 | 25.87915 | 121.87854 | 25117 ft | 512 kts | 28° |
| 2026-05-04 08:02 | 26.08772 | 122.04382 | 28013 ft | 541 kts | 29° |
| 2026-05-04 08:02 | 26.11862 | 122.06778 | 28392 ft | 545 kts | 29° |
| 2026-05-04 08:02 | 26.14980 | 122.09192 | 28797 ft | 548 kts | 29° |
| 2026-05-04 08:03 | 26.18082 | 122.11601 | 29182 ft | 552 kts | 29° |
| 2026-05-04 08:03 | 26.21230 | 122.14055 | 29556 ft | 556 kts | 29° |
| 2026-05-04 08:03 | 26.24403 | 122.16538 | 29902 ft | 560 kts | 29° |
| 2026-05-04 08:03 | 26.27603 | 122.19049 | 30305 ft | 562 kts | 29° |
| 2026-05-04 08:04 | 26.30796 | 122.21560 | 30739 ft | 562 kts | 29° |
| 2026-05-04 08:04 | 26.33983 | 122.24069 | 31232 ft | 560 kts | 29° |
| 2026-05-04 08:04 | 26.37157 | 122.26569 | 31733 ft | 559 kts | 29° |
| 2026-05-04 08:04 | 26.40326 | 122.29065 | 32214 ft | 558 kts | 29° |
| 2026-05-04 08:05 | 26.43496 | 122.31561 | 32688 ft | 557 kts | 29° |
| 2026-05-04 08:05 | 26.46610 | 122.34014 | 33141 ft | 556 kts | 29° |
| 2026-05-04 08:05 | 26.49779 | 122.36512 | 33590 ft | 556 kts | 29° |
| 2026-05-04 08:05 | 26.52939 | 122.39003 | 34005 ft | 556 kts | 28° |
| 2026-05-04 08:06 | 26.56095 | 122.41493 | 34363 ft | 556 kts | 28° |
| 2026-05-04 08:06 | 26.59255 | 122.43989 | 34748 ft | 555 kts | 28° |
| 2026-05-04 08:06 | 26.62404 | 122.46479 | 35158 ft | 553 kts | 28° |
| 2026-05-04 08:06 | 26.65531 | 122.48954 | 35535 ft | 552 kts | 28° |
| 2026-05-04 08:08 | 26.87379 | 122.66279 | 37151 ft | 553 kts | 28° |
| 2026-05-04 08:08 | 26.90509 | 122.68771 | 37144 ft | 550 kts | 28° |
| 2026-05-04 08:11 | 27.18367 | 122.90671 | 37144 ft | 530 kts | 13° |
| 2026-05-04 08:11 | 27.25271 | 122.92021 | 37177 ft | 491 kts | 346° |
| 2026-05-04 08:11 | 27.28612 | 122.91545 | 37161 ft | 478 kts | 334° |
| 2026-05-04 08:12 | 27.31685 | 122.90335 | 37190 ft | 464 kts | 327° |
| 2026-05-04 08:12 | 27.34687 | 122.88978 | 37145 ft | 468 kts | 327° |
| 2026-05-04 08:12 | 27.37640 | 122.87521 | 37152 ft | 454 kts | 317° |
| 2026-05-04 08:12 | 27.40045 | 122.85379 | 37162 ft | 431 kts | 302° |
| 2026-05-04 08:13 | 27.41754 | 122.82747 | 37360 ft | 416 kts | 291° |
| 2026-05-04 08:13 | 27.43026 | 122.79871 | 37667 ft | 408 kts | 285° |
| 2026-05-04 08:13 | 27.43847 | 122.76839 | 37588 ft | 401 kts | 274° |
| 2026-05-04 08:13 | 27.43971 | 122.73746 | 37581 ft | 392 kts | 266° |
| 2026-05-04 08:14 | 27.43900 | 122.67636 | 37579 ft | 389 kts | 266° |
| 2026-05-04 08:16 | 27.43968 | 122.43452 | 37473 ft | 391 kts | 271° |
| 2026-05-04 08:16 | 27.44239 | 122.40393 | 37345 ft | 395 kts | 274° |
| 2026-05-04 08:16 | 27.44722 | 122.37323 | 37234 ft | 401 kts | 276° |
| 2026-05-04 08:17 | 27.45260 | 122.34281 | 37127 ft | 403 kts | 276° |
| 2026-05-04 08:17 | 27.45811 | 122.31188 | 37003 ft | 404 kts | 276° |
| 2026-05-04 08:17 | 27.46363 | 122.28084 | 36885 ft | 404 kts | 276° |
| 2026-05-04 08:17 | 27.46912 | 122.24984 | 36761 ft | 404 kts | 276° |
| 2026-05-04 08:19 | 27.50653 | 122.03518 | 36271 ft | 398 kts | 276° |
| 2026-05-04 08:19 | 27.51181 | 122.00457 | 36265 ft | 398 kts | 276° |
| 2026-05-04 08:20 | 27.52239 | 121.94326 | 36263 ft | 399 kts | 276° |
| 2026-05-04 08:20 | 27.53295 | 121.88189 | 36262 ft | 400 kts | 276° |
| 2026-05-04 08:21 | 27.54352 | 121.82035 | 36261 ft | 400 kts | 276° |
| 2026-05-04 08:21 | 27.55397 | 121.75929 | 36263 ft | 400 kts | 276° |
| 2026-05-04 08:22 | 27.56447 | 121.69781 | 36272 ft | 399 kts | 276° |
| 2026-05-04 08:24 | 27.60692 | 121.45317 | 36264 ft | 397 kts | 276° |
| 2026-05-04 08:24 | 27.61775 | 121.39214 | 36264 ft | 397 kts | 276° |
| 2026-05-04 08:25 | 27.62850 | 121.33125 | 36265 ft | 396 kts | 276° |
| 2026-05-04 08:25 | 27.63922 | 121.27028 | 36266 ft | 396 kts | 276° |
| 2026-05-04 08:27 | 27.68151 | 121.02801 | 36263 ft | 395 kts | 276° |
| 2026-05-04 08:28 | 27.69199 | 120.96754 | 36264 ft | 395 kts | 276° |
| 2026-05-04 08:28 | 27.70252 | 120.90669 | 36265 ft | 395 kts | 276° |
| 2026-05-04 08:29 | 27.71303 | 120.84575 | 36262 ft | 396 kts | 276° |
| 2026-05-04 08:31 | 27.78747 | 120.61411 | 36258 ft | 428 kts | 306° |
| 2026-05-04 08:33 | 27.98304 | 120.50493 | 36264 ft | 451 kts | 322° |
| 2026-05-04 08:33 | 28.01135 | 120.48985 | 36264 ft | 450 kts | 322° |
| 2026-05-04 08:35 | 28.23755 | 120.36781 | 36269 ft | 451 kts | 322° |
| 2026-05-04 08:35 | 28.29411 | 120.33723 | 36263 ft | 451 kts | 322° |
| 2026-05-04 08:37 | 28.49243 | 120.22968 | 36235 ft | 452 kts | 322° |
| 2026-05-04 08:38 | 28.54910 | 120.19889 | 36246 ft | 451 kts | 322° |
| 2026-05-04 08:38 | 28.60575 | 120.16806 | 36243 ft | 450 kts | 322° |
| 2026-05-04 08:40 | 28.83035 | 120.04542 | 36228 ft | 448 kts | 322° |
| 2026-05-04 08:41 | 28.88628 | 120.01478 | 36221 ft | 449 kts | 322° |
| 2026-05-04 08:41 | 28.94255 | 119.98392 | 36218 ft | 449 kts | 322° |
| 2026-05-04 08:42 | 28.99899 | 119.95294 | 36222 ft | 450 kts | 322° |
| 2026-05-04 08:42 | 29.05543 | 119.92193 | 36213 ft | 451 kts | 322° |
| 2026-05-04 08:43 | 29.11198 | 119.89081 | 36214 ft | 451 kts | 322° |
| 2026-05-04 08:43 | 29.16817 | 119.85985 | 36210 ft | 451 kts | 322° |
| 2026-05-04 08:44 | 29.22470 | 119.82868 | 36212 ft | 451 kts | 322° |
| 2026-05-04 08:46 | 29.45021 | 119.70387 | 36204 ft | 451 kts | 322° |
| 2026-05-04 08:46 | 29.50664 | 119.67256 | 36214 ft | 451 kts | 322° |
| 2026-05-04 08:47 | 29.56513 | 119.64441 | 36204 ft | 464 kts | 330° |
| 2026-05-04 08:47 | 29.62831 | 119.62550 | 36202 ft | 470 kts | 334° |
| 2026-05-04 08:48 | 29.69143 | 119.60827 | 36198 ft | 468 kts | 334° |
| 2026-05-04 08:48 | 29.75466 | 119.59074 | 36195 ft | 467 kts | 334° |
| 2026-05-04 08:49 | 29.81765 | 119.57293 | 36189 ft | 466 kts | 334° |
| 2026-05-04 08:50 | 30.03800 | 119.51009 | 36198 ft | 468 kts | 334° |
| 2026-05-04 08:51 | 30.10137 | 119.49199 | 36191 ft | 469 kts | 334° |
| 2026-05-04 08:51 | 30.16479 | 119.47385 | 36196 ft | 470 kts | 334° |
| 2026-05-04 08:52 | 30.22782 | 119.45580 | 36190 ft | 470 kts | 334° |
| 2026-05-04 08:52 | 30.29120 | 119.43763 | 36189 ft | 470 kts | 334° |
| 2026-05-04 08:54 | 30.54395 | 119.36495 | 36173 ft | 465 kts | 334° |
| 2026-05-04 08:55 | 30.60672 | 119.34682 | 36167 ft | 464 kts | 334° |
| 2026-05-04 08:55 | 30.66943 | 119.32866 | 36163 ft | 464 kts | 334° |
| 2026-05-04 09:01 | 31.32762 | 119.13686 | 36157 ft | 466 kts | 335° |
| 2026-05-04 09:01 | 31.39045 | 119.11841 | 36155 ft | 465 kts | 335° |
| 2026-05-04 09:02 | 31.45326 | 119.09993 | 36152 ft | 465 kts | 335° |
| 2026-05-04 09:02 | 31.51555 | 119.08152 | 36150 ft | 463 kts | 334° |
| 2026-05-04 09:02 | 31.54572 | 119.06948 | 36149 ft | 452 kts | 327° |
| 2026-05-04 09:03 | 31.57391 | 119.05396 | 36162 ft | 445 kts | 322° |
| 2026-05-04 09:03 | 31.62385 | 119.01421 | 36154 ft | 421 kts | 304° |
| 2026-05-04 09:03 | 31.64038 | 118.98668 | 36158 ft | 408 kts | 292° |
| 2026-05-04 09:04 | 31.65223 | 118.95662 | 36167 ft | 407 kts | 286° |
| 2026-05-04 09:04 | 31.65986 | 118.92475 | 36134 ft | 405 kts | 275° |
| 2026-05-04 09:04 | 31.66261 | 118.89224 | 36144 ft | 408 kts | 273° |
| 2026-05-04 09:05 | 31.66692 | 118.82552 | 36162 ft | 410 kts | 272° |
| 2026-05-04 09:05 | 31.67138 | 118.75871 | 36161 ft | 411 kts | 273° |
| 2026-05-04 09:06 | 31.67615 | 118.69190 | 36145 ft | 411 kts | 273° |
| 2026-05-04 09:08 | 31.69537 | 118.42672 | 36133 ft | 406 kts | 273° |
| 2026-05-04 09:08 | 31.70002 | 118.36128 | 36133 ft | 405 kts | 273° |
| 2026-05-04 09:09 | 31.70467 | 118.29544 | 36137 ft | 405 kts | 273° |
| 2026-05-04 09:09 | 31.70929 | 118.22962 | 36136 ft | 405 kts | 273° |
| 2026-05-04 09:10 | 31.71388 | 118.16367 | 36137 ft | 405 kts | 273° |
| 2026-05-04 09:10 | 31.71842 | 118.09806 | 36135 ft | 406 kts | 273° |
| 2026-05-04 09:11 | 31.72324 | 118.03195 | 36136 ft | 407 kts | 274° |
| 2026-05-04 09:11 | 31.72815 | 117.96577 | 36142 ft | 407 kts | 274° |
| 2026-05-04 09:12 | 31.73302 | 117.89936 | 36140 ft | 408 kts | 274° |
| 2026-05-04 09:14 | 31.75205 | 117.63355 | 36133 ft | 409 kts | 273° |
| 2026-05-04 09:14 | 31.75670 | 117.56732 | 36128 ft | 409 kts | 273° |
| 2026-05-04 09:15 | 31.76135 | 117.50070 | 36126 ft | 410 kts | 273° |
| 2026-05-04 09:15 | 31.76598 | 117.43390 | 36125 ft | 410 kts | 273° |
| 2026-05-04 09:17 | 31.87333 | 117.16494 | 36123 ft | 427 kts | 304° |
| 2026-05-04 09:18 | 31.91198 | 117.11194 | 36122 ft | 426 kts | 304° |
| 2026-05-04 09:18 | 31.95003 | 117.05900 | 36122 ft | 426 kts | 304° |
| 2026-05-04 09:19 | 31.98828 | 117.00569 | 36122 ft | 426 kts | 304° |
| 2026-05-04 09:19 | 32.02665 | 116.95248 | 36119 ft | 426 kts | 304° |
| 2026-05-04 09:20 | 32.06502 | 116.89927 | 36122 ft | 426 kts | 304° |
| 2026-05-04 09:20 | 32.10317 | 116.84625 | 36117 ft | 427 kts | 304° |
| 2026-05-04 09:21 | 32.14152 | 116.79285 | 36115 ft | 427 kts | 304° |
| 2026-05-04 09:21 | 32.17990 | 116.73933 | 36112 ft | 428 kts | 304° |
| 2026-05-04 09:22 | 32.21802 | 116.68544 | 36106 ft | 428 kts | 304° |
| 2026-05-04 09:22 | 32.25559 | 116.63139 | 36103 ft | 428 kts | 304° |
| 2026-05-04 09:23 | 32.29341 | 116.57691 | 36103 ft | 429 kts | 304° |
| 2026-05-04 09:23 | 32.33130 | 116.52238 | 36103 ft | 430 kts | 304° |
| 2026-05-04 09:25 | 32.48315 | 116.30317 | 36098 ft | 432 kts | 304° |
| 2026-05-04 09:26 | 32.52122 | 116.24802 | 36094 ft | 433 kts | 304° |
| 2026-05-04 09:26 | 32.55904 | 116.19314 | 36089 ft | 433 kts | 304° |
| 2026-05-04 09:27 | 32.59753 | 116.13809 | 36094 ft | 434 kts | 305° |
| 2026-05-04 09:27 | 32.63650 | 116.08325 | 36091 ft | 434 kts | 305° |
| 2026-05-04 09:28 | 32.67539 | 116.02838 | 36095 ft | 435 kts | 305° |
| 2026-05-04 09:28 | 32.71397 | 115.97370 | 36086 ft | 435 kts | 305° |
| 2026-05-04 09:29 | 32.75285 | 115.91847 | 36083 ft | 436 kts | 305° |
| 2026-05-04 09:29 | 32.79175 | 115.86313 | 36083 ft | 437 kts | 306° |
| 2026-05-04 09:30 | 32.83074 | 115.80759 | 36083 ft | 438 kts | 306° |
| 2026-05-04 09:30 | 32.87116 | 115.75382 | 36091 ft | 442 kts | 312° |
| 2026-05-04 09:31 | 32.91901 | 115.70727 | 36081 ft | 448 kts | 320° |
| 2026-05-04 09:31 | 32.97241 | 115.66821 | 36077 ft | 452 kts | 324° |
| 2026-05-04 09:32 | 33.02667 | 115.63030 | 36082 ft | 452 kts | 324° |
| 2026-05-04 09:34 | 33.19438 | 115.46899 | 36083 ft | 440 kts | 307° |
| 2026-05-04 09:34 | 33.21434 | 115.44130 | 36083 ft | 440 kts | 307° |
| 2026-05-04 09:34 | 33.25437 | 115.38583 | 36082 ft | 441 kts | 307° |
| 2026-05-04 09:35 | 33.29428 | 115.33085 | 36082 ft | 441 kts | 307° |
| 2026-05-04 09:35 | 33.33458 | 115.27547 | 36081 ft | 441 kts | 308° |
| 2026-05-04 09:37 | 33.47070 | 115.08791 | 33056 ft | 416 kts | 309° |
| 2026-05-04 09:37 | 33.48962 | 115.06177 | 32570 ft | 413 kts | 309° |
| 2026-05-04 09:38 | 33.50834 | 115.03589 | 32111 ft | 409 kts | 309° |
| 2026-05-04 09:38 | 33.52688 | 115.01021 | 31652 ft | 406 kts | 309° |
| 2026-05-04 09:38 | 33.54533 | 114.98464 | 31195 ft | 403 kts | 309° |
| 2026-05-04 09:38 | 33.56360 | 114.95930 | 30759 ft | 401 kts | 309° |
| 2026-05-04 09:39 | 33.58179 | 114.93405 | 30304 ft | 398 kts | 309° |
| 2026-05-04 09:39 | 33.59961 | 114.90932 | 29824 ft | 396 kts | 309° |
| 2026-05-04 09:39 | 33.61757 | 114.88436 | 29325 ft | 394 kts | 309° |
| 2026-05-04 09:39 | 33.63534 | 114.85965 | 28865 ft | 390 kts | 309° |
| 2026-05-04 09:40 | 33.65303 | 114.83504 | 28401 ft | 387 kts | 310° |
| 2026-05-04 09:40 | 33.67053 | 114.81068 | 27959 ft | 384 kts | 310° |
| 2026-05-04 09:40 | 33.68790 | 114.78650 | 27511 ft | 381 kts | 310° |
| 2026-05-04 09:40 | 33.70735 | 114.76539 | 27055 ft | 378 kts | 326° |
| 2026-05-04 09:41 | 33.73098 | 114.75202 | 26654 ft | 376 kts | 339° |
| 2026-05-04 09:42 | 33.90268 | 114.68761 | 23721 ft | 364 kts | 341° |
| 2026-05-04 09:43 | 33.92672 | 114.67845 | 23265 ft | 363 kts | 340° |
| 2026-05-04 09:43 | 33.95067 | 114.66887 | 22807 ft | 361 kts | 340° |
| 2026-05-04 09:43 | 33.97404 | 114.65950 | 22383 ft | 358 kts | 340° |
| 2026-05-04 09:43 | 33.99761 | 114.65013 | 21966 ft | 356 kts | 340° |
| 2026-05-04 09:44 | 34.02107 | 114.64089 | 21553 ft | 353 kts | 340° |
| 2026-05-04 09:44 | 34.04432 | 114.63180 | 21155 ft | 350 kts | 340° |
| 2026-05-04 09:44 | 34.06742 | 114.62278 | 20747 ft | 348 kts | 340° |
| 2026-05-04 09:46 | 34.17854 | 114.49765 | 17990 ft | 325 kts | 293° |
| 2026-05-04 09:46 | 34.18702 | 114.47243 | 17579 ft | 323 kts | 293° |
| 2026-05-04 09:46 | 34.19546 | 114.44749 | 17182 ft | 320 kts | 294° |
| 2026-05-04 09:47 | 34.20393 | 114.42276 | 16801 ft | 317 kts | 294° |
| 2026-05-04 09:47 | 34.21235 | 114.39834 | 16436 ft | 313 kts | 294° |
| 2026-05-04 09:49 | 34.26759 | 114.23930 | 14542 ft | 277 kts | 294° |
| 2026-05-04 09:49 | 34.27504 | 114.21784 | 14139 ft | 278 kts | 294° |
| 2026-05-04 09:49 | 34.28244 | 114.19655 | 13719 ft | 279 kts | 294° |
| 2026-05-04 09:51 | 34.33645 | 114.07506 | 11392 ft | 268 kts | 332° |
| 2026-05-04 09:51 | 34.35390 | 114.06752 | 11093 ft | 265 kts | 343° |
| 2026-05-04 09:51 | 34.37176 | 114.06179 | 10722 ft | 265 kts | 344° |
| 2026-05-04 09:51 | 34.38939 | 114.05631 | 10344 ft | 265 kts | 344° |
| 2026-05-04 09:52 | 34.40725 | 114.05075 | 9997 ft | 265 kts | 344° |
| 2026-05-04 09:52 | 34.42503 | 114.04515 | 9618 ft | 264 kts | 343° |
| 2026-05-04 09:52 | 34.44275 | 114.03951 | 9285 ft | 262 kts | 343° |
| 2026-05-04 09:52 | 34.46026 | 114.03392 | 9030 ft | 259 kts | 343° |
| 2026-05-04 09:53 | 34.47766 | 114.02828 | 8800 ft | 259 kts | 343° |
| 2026-05-04 09:53 | 34.49502 | 114.02269 | 8621 ft | 258 kts | 343° |
| 2026-05-04 09:53 | 34.51237 | 114.01702 | 8445 ft | 258 kts | 343° |
| 2026-05-04 09:53 | 34.52952 | 114.01148 | 8280 ft | 259 kts | 343° |
| 2026-05-04 09:54 | 34.54690 | 114.00578 | 8105 ft | 259 kts | 343° |
| 2026-05-04 09:54 | 34.56419 | 113.99975 | 7934 ft | 256 kts | 335° |
| 2026-05-04 09:54 | 34.57820 | 113.98718 | 7722 ft | 251 kts | 306° |
| 2026-05-04 09:54 | 34.58644 | 113.96876 | 7592 ft | 248 kts | 292° |
| 2026-05-04 09:55 | 34.59302 | 113.94942 | 7421 ft | 249 kts | 291° |
| 2026-05-04 09:55 | 34.59956 | 113.92986 | 7255 ft | 250 kts | 291° |
| 2026-05-04 09:55 | 34.60612 | 113.91030 | 7092 ft | 251 kts | 291° |
| 2026-05-04 09:55 | 34.61264 | 113.89089 | 6889 ft | 253 kts | 291° |
| 2026-05-04 09:56 | 34.61935 | 113.87104 | 6605 ft | 253 kts | 291° |
| 2026-05-04 09:56 | 34.62600 | 113.85139 | 6291 ft | 251 kts | 291° |
| 2026-05-04 09:56 | 34.63259 | 113.83189 | 5957 ft | 248 kts | 291° |
| 2026-05-04 09:56 | 34.63916 | 113.81259 | 5635 ft | 246 kts | 291° |
| 2026-05-04 09:57 | 34.64566 | 113.79355 | 5302 ft | 244 kts | 291° |
| 2026-05-04 09:57 | 34.65212 | 113.77463 | 4987 ft | 241 kts | 290° |
| 2026-05-04 09:57 | 34.65852 | 113.75590 | 4695 ft | 238 kts | 290° |
| 2026-05-04 09:57 | 34.66373 | 113.73742 | 4449 ft | 224 kts | 273° |
| 2026-05-04 09:58 | 34.66141 | 113.71972 | 4213 ft | 212 kts | 241° |
| 2026-05-04 09:58 | 34.65280 | 113.70547 | 4039 ft | 210 kts | 223° |
| 2026-05-04 09:58 | 34.64087 | 113.69543 | 3828 ft | 210 kts | 205° |
| 2026-05-04 10:00 | 34.57458 | 113.73658 | 2628 ft | 184 kts | 113° |
| 2026-05-04 10:00 | 34.57004 | 113.75065 | 2421 ft | 170 kts | 115° |
| 2026-05-04 10:02 | 34.54280 | 113.83128 | 718 ft | 137 kts | 115° |
| 2026-05-04 10:04 | 34.53119 | 113.86974 | 506 ft | 12 kts | 2° |
| 2026-05-04 10:04 | 34.53173 | 113.86902 | 507 ft | 12 kts | 295° |
| 2026-05-04 10:04 | 34.53204 | 113.86807 | 506 ft | 12 kts | 291° |
| 2026-05-04 10:04 | 34.53237 | 113.86713 | 507 ft | 12 kts | 293° |
| 2026-05-04 10:05 | 34.53269 | 113.86618 | 507 ft | 12 kts | 292° |
| 2026-05-04 10:05 | 34.53302 | 113.86523 | 507 ft | 12 kts | 292° |
| 2026-05-04 10:05 | 34.53334 | 113.86429 | 507 ft | 12 kts | 292° |
| 2026-05-04 10:05 | 34.53367 | 113.86334 | 508 ft | 12 kts | 293° |
| 2026-05-04 10:06 | 34.53399 | 113.86239 | 508 ft | 12 kts | 291° |
| 2026-05-04 10:06 | 34.53430 | 113.86145 | 507 ft | 12 kts | 292° |
| 2026-05-04 10:06 | 34.53470 | 113.86082 | 508 ft | 10 kts | 347° |
| 2026-05-04 10:08 | 34.53859 | 113.86270 | 509 ft | 12 kts | 22° |
| 2026-05-04 10:08 | 34.53930 | 113.86305 | 509 ft | 8 kts | 22° |
| 2026-05-04 10:08 | 34.53982 | 113.86307 | 509 ft | 8 kts | 349° |
| 2026-05-04 10:08 | 34.54036 | 113.86316 | 509 ft | 8 kts | 20° |
| 2026-05-04 10:09 | 34.54068 | 113.86332 | 509 ft | 3 kts | 22° |
| 2026-05-04 10:09 | 34.54077 | 113.86336 | 509 ft | 1 kts | 22° |
| 2026-05-04 10:09 | 34.54081 | 113.86338 | 509 ft | 0 kts | 22° |